Terminal Aerodrome Forecast
Issued by NWS Bismarck, ND

Home | Current Version | Previous Version | Graphics & Text | Print | Product List | Glossary On
Versions: 1 2 3 4 5 6 7 8 9 10 11 12 13
000
FTUS43 KBIS 211720
TAFISN
TAF
KISN 211720Z 2118/2218 34018G22KT P6SM SKC
     FM220100 34008KT P6SM SKC
     FM220500 01004KT P6SM SKC
     FM221700 25004KT P6SM FEW200=

USA.gov is the U.S. government's official web portal to all federal, state and local government web resources and services.